sensor_id;sensor_type;location;lat;lon;timestamp;P1;durP1;ratioP1;P2;durP2;ratioP2
51852;SDS011;37894;53.172;6.598;2023-12-04T00:01:19;41.45;;;19.95;;
51852;SDS011;37894;53.172;6.598;2023-12-04T00:03:44;47.60;;;21.80;;
51852;SDS011;37894;53.172;6.598;2023-12-04T00:06:10;41.53;;;21.42;;
51852;SDS011;37894;53.172;6.598;2023-12-04T00:08:37;43.97;;;21.77;;
51852;SDS011;37894;53.172;6.598;2023-12-04T00:11:03;52.13;;;24.25;;
51852;SDS011;37894;53.172;6.598;2023-12-04T00:13:30;46.97;;;22.00;;
51852;SDS011;37894;53.172;6.598;2023-12-04T00:15:56;44.42;;;21.33;;
51852;SDS011;37894;53.172;6.598;2023-12-04T00:18:21;45.90;;;21.77;;
51852;SDS011;37894;53.172;6.598;2023-12-04T00:20:47;47.05;;;23.48;;
51852;SDS011;37894;53.172;6.598;2023-12-04T00:23:13;44.63;;;21.02;;
51852;SDS011;37894;53.172;6.598;2023-12-04T00:25:39;46.70;;;21.40;;
51852;SDS011;37894;53.172;6.598;2023-12-04T00:28:04;47.10;;;22.50;;
51852;SDS011;37894;53.172;6.598;2023-12-04T00:30:30;44.47;;;22.35;;
51852;SDS011;37894;53.172;6.598;2023-12-04T00:32:56;46.75;;;22.02;;
51852;SDS011;37894;53.172;6.598;2023-12-04T00:35:22;41.13;;;22.63;;
51852;SDS011;37894;53.172;6.598;2023-12-04T00:37:47;47.03;;;22.98;;
51852;SDS011;37894;53.172;6.598;2023-12-04T00:40:13;52.20;;;22.85;;
51852;SDS011;37894;53.172;6.598;2023-12-04T00:42:38;48.40;;;22.50;;
51852;SDS011;37894;53.172;6.598;2023-12-04T00:45:04;44.58;;;22.58;;
51852;SDS011;37894;53.172;6.598;2023-12-04T00:47:30;47.47;;;22.52;;
51852;SDS011;37894;53.172;6.598;2023-12-04T00:49:56;48.70;;;22.80;;
51852;SDS011;37894;53.172;6.598;2023-12-04T00:52:22;48.33;;;22.35;;
51852;SDS011;37894;53.172;6.598;2023-12-04T00:54:48;51.05;;;22.67;;
51852;SDS011;37894;53.172;6.598;2023-12-04T00:57:14;45.17;;;21.10;;
51852;SDS011;37894;53.172;6.598;2023-12-04T00:59:39;43.10;;;20.00;;
51852;SDS011;37894;53.172;6.598;2023-12-04T01:02:06;47.88;;;20.83;;
51852;SDS011;37894;53.172;6.598;2023-12-04T01:04:32;48.58;;;22.83;;
51852;SDS011;37894;53.172;6.598;2023-12-04T01:06:58;50.20;;;22.60;;
51852;SDS011;37894;53.172;6.598;2023-12-04T01:09:24;48.03;;;22.25;;
51852;SDS011;37894;53.172;6.598;2023-12-04T01:11:53;51.50;;;22.92;;
51852;SDS011;37894;53.172;6.598;2023-12-04T01:14:19;48.80;;;21.80;;
51852;SDS011;37894;53.172;6.598;2023-12-04T01:16:46;48.47;;;22.55;;
51852;SDS011;37894;53.172;6.598;2023-12-04T01:19:12;47.33;;;21.90;;
51852;SDS011;37894;53.172;6.598;2023-12-04T01:21:38;44.65;;;20.98;;
51852;SDS011;37894;53.172;6.598;2023-12-04T01:24:04;49.20;;;21.70;;
51852;SDS011;37894;53.172;6.598;2023-12-04T01:26:30;44.92;;;20.48;;
51852;SDS011;37894;53.172;6.598;2023-12-04T01:28:55;45.63;;;20.05;;
51852;SDS011;37894;53.172;6.598;2023-12-04T01:31:22;49.22;;;22.33;;
51852;SDS011;37894;53.172;6.598;2023-12-04T01:33:47;46.05;;;21.75;;
51852;SDS011;37894;53.172;6.598;2023-12-04T01:36:13;45.50;;;19.92;;
51852;SDS011;37894;53.172;6.598;2023-12-04T01:38:39;46.63;;;21.13;;
51852;SDS011;37894;53.172;6.598;2023-12-04T01:41:05;39.60;;;20.27;;
51852;SDS011;37894;53.172;6.598;2023-12-04T01:43:31;41.85;;;20.52;;
51852;SDS011;37894;53.172;6.598;2023-12-04T01:45:57;42.70;;;20.90;;
51852;SDS011;37894;53.172;6.598;2023-12-04T01:48:25;45.95;;;19.40;;
51852;SDS011;37894;53.172;6.598;2023-12-04T01:50:53;41.13;;;19.55;;
51852;SDS011;37894;53.172;6.598;2023-12-04T01:53:19;38.90;;;19.67;;
51852;SDS011;37894;53.172;6.598;2023-12-04T01:55:45;41.72;;;20.00;;
51852;SDS011;37894;53.172;6.598;2023-12-04T01:58:11;41.58;;;19.00;;
51852;SDS011;37894;53.172;6.598;2023-12-04T02:00:37;42.17;;;19.98;;
51852;SDS011;37894;53.172;6.598;2023-12-04T02:03:03;44.65;;;20.02;;
51852;SDS011;37894;53.172;6.598;2023-12-04T02:05:29;38.20;;;18.45;;
51852;SDS011;37894;53.172;6.598;2023-12-04T02:07:56;47.25;;;21.45;;
51852;SDS011;37894;53.172;6.598;2023-12-04T02:10:22;40.70;;;18.55;;
51852;SDS011;37894;53.172;6.598;2023-12-04T02:12:48;43.03;;;19.98;;
51852;SDS011;37894;53.172;6.598;2023-12-04T02:15:15;43.53;;;21.83;;
51852;SDS011;37894;53.172;6.598;2023-12-04T02:17:42;41.25;;;18.45;;
51852;SDS011;37894;53.172;6.598;2023-12-04T02:20:09;41.97;;;20.58;;
51852;SDS011;37894;53.172;6.598;2023-12-04T02:22:37;45.05;;;21.00;;
51852;SDS011;37894;53.172;6.598;2023-12-04T02:25:03;45.10;;;20.13;;
51852;SDS011;37894;53.172;6.598;2023-12-04T02:30:12;42.35;;;19.98;;
51852;SDS011;37894;53.172;6.598;2023-12-04T02:32:42;45.13;;;19.88;;
51852;SDS011;37894;53.172;6.598;2023-12-04T02:35:11;44.15;;;20.05;;
51852;SDS011;37894;53.172;6.598;2023-12-04T02:37:39;44.10;;;19.30;;
51852;SDS011;37894;53.172;6.598;2023-12-04T02:40:05;41.95;;;19.30;;
51852;SDS011;37894;53.172;6.598;2023-12-04T02:42:32;42.10;;;19.95;;
51852;SDS011;37894;53.172;6.598;2023-12-04T02:44:58;41.50;;;19.90;;
51852;SDS011;37894;53.172;6.598;2023-12-04T02:47:24;43.10;;;19.27;;
51852;SDS011;37894;53.172;6.598;2023-12-04T02:49:50;39.78;;;19.42;;
51852;SDS011;37894;53.172;6.598;2023-12-04T02:52:16;45.55;;;19.98;;
51852;SDS011;37894;53.172;6.598;2023-12-04T02:54:41;40.95;;;18.75;;
51852;SDS011;37894;53.172;6.598;2023-12-04T02:57:07;44.60;;;19.60;;
51852;SDS011;37894;53.172;6.598;2023-12-04T02:59:33;39.97;;;19.48;;
51852;SDS011;37894;53.172;6.598;2023-12-04T03:01:59;43.47;;;20.55;;
51852;SDS011;37894;53.172;6.598;2023-12-04T03:04:26;41.17;;;19.75;;
51852;SDS011;37894;53.172;6.598;2023-12-04T03:06:53;43.53;;;20.45;;
51852;SDS011;37894;53.172;6.598;2023-12-04T03:09:18;39.92;;;19.85;;
51852;SDS011;37894;53.172;6.598;2023-12-04T03:11:44;41.42;;;19.33;;
51852;SDS011;37894;53.172;6.598;2023-12-04T03:14:10;40.13;;;18.80;;
51852;SDS011;37894;53.172;6.598;2023-12-04T03:16:36;42.10;;;19.95;;
51852;SDS011;37894;53.172;6.598;2023-12-04T03:19:01;46.10;;;19.83;;
51852;SDS011;37894;53.172;6.598;2023-12-04T03:21:27;40.75;;;19.38;;
51852;SDS011;37894;53.172;6.598;2023-12-04T03:23:54;40.03;;;18.92;;
51852;SDS011;37894;53.172;6.598;2023-12-04T03:26:20;43.78;;;20.13;;
51852;SDS011;37894;53.172;6.598;2023-12-04T03:28:46;44.22;;;19.42;;
51852;SDS011;37894;53.172;6.598;2023-12-04T03:31:12;42.60;;;20.63;;
51852;SDS011;37894;53.172;6.598;2023-12-04T03:33:38;45.92;;;19.40;;
51852;SDS011;37894;53.172;6.598;2023-12-04T03:36:03;45.35;;;19.38;;
51852;SDS011;37894;53.172;6.598;2023-12-04T03:38:29;42.35;;;20.13;;
51852;SDS011;37894;53.172;6.598;2023-12-04T03:40:55;36.90;;;19.25;;
51852;SDS011;37894;53.172;6.598;2023-12-04T03:43:21;41.90;;;19.73;;
51852;SDS011;37894;53.172;6.598;2023-12-04T03:45:47;43.00;;;19.92;;
51852;SDS011;37894;53.172;6.598;2023-12-04T03:48:13;37.00;;;18.50;;
51852;SDS011;37894;53.172;6.598;2023-12-04T03:50:39;41.45;;;18.98;;
51852;SDS011;37894;53.172;6.598;2023-12-04T03:53:04;45.13;;;20.90;;
51852;SDS011;37894;53.172;6.598;2023-12-04T03:55:30;37.67;;;18.13;;
51852;SDS011;37894;53.172;6.598;2023-12-04T03:57:56;39.65;;;18.67;;
51852;SDS011;37894;53.172;6.598;2023-12-04T04:00:22;43.97;;;20.13;;
51852;SDS011;37894;53.172;6.598;2023-12-04T04:02:48;43.47;;;19.60;;
51852;SDS011;37894;53.172;6.598;2023-12-04T04:05:15;44.63;;;20.13;;
51852;SDS011;37894;53.172;6.598;2023-12-04T04:07:41;43.40;;;19.92;;
51852;SDS011;37894;53.172;6.598;2023-12-04T04:10:07;44.35;;;19.40;;
51852;SDS011;37894;53.172;6.598;2023-12-04T04:12:33;48.00;;;19.33;;
51852;SDS011;37894;53.172;6.598;2023-12-04T04:14:59;40.65;;;19.27;;
51852;SDS011;37894;53.172;6.598;2023-12-04T04:17:25;41.63;;;17.67;;
51852;SDS011;37894;53.172;6.598;2023-12-04T04:19:51;39.03;;;18.27;;
51852;SDS011;37894;53.172;6.598;2023-12-04T04:22:18;41.20;;;19.23;;
51852;SDS011;37894;53.172;6.598;2023-12-04T04:24:44;42.28;;;20.08;;
51852;SDS011;37894;53.172;6.598;2023-12-04T04:27:10;44.72;;;20.38;;
51852;SDS011;37894;53.172;6.598;2023-12-04T04:29:36;39.88;;;18.52;;
51852;SDS011;37894;53.172;6.598;2023-12-04T04:32:02;37.20;;;18.05;;
51852;SDS011;37894;53.172;6.598;2023-12-04T04:34:28;40.53;;;19.02;;
51852;SDS011;37894;53.172;6.598;2023-12-04T04:36:53;37.80;;;18.40;;
51852;SDS011;37894;53.172;6.598;2023-12-04T04:39:19;43.30;;;19.70;;
51852;SDS011;37894;53.172;6.598;2023-12-04T04:41:45;37.13;;;18.38;;
51852;SDS011;37894;53.172;6.598;2023-12-04T04:44:11;42.72;;;19.60;;
51852;SDS011;37894;53.172;6.598;2023-12-04T04:46:36;38.92;;;18.92;;
51852;SDS011;37894;53.172;6.598;2023-12-04T04:49:02;39.05;;;17.83;;
51852;SDS011;37894;53.172;6.598;2023-12-04T04:51:31;40.50;;;18.35;;
51852;SDS011;37894;53.172;6.598;2023-12-04T04:53:59;38.95;;;19.02;;
51852;SDS011;37894;53.172;6.598;2023-12-04T04:56:27;41.03;;;20.17;;
51852;SDS011;37894;53.172;6.598;2023-12-04T04:58:54;38.42;;;17.42;;
51852;SDS011;37894;53.172;6.598;2023-12-04T05:01:19;38.35;;;17.48;;
51852;SDS011;37894;53.172;6.598;2023-12-04T05:03:45;41.63;;;19.10;;
51852;SDS011;37894;53.172;6.598;2023-12-04T05:06:11;40.83;;;19.15;;
51852;SDS011;37894;53.172;6.598;2023-12-04T05:08:36;38.15;;;16.83;;
51852;SDS011;37894;53.172;6.598;2023-12-04T05:11:02;41.55;;;18.95;;
51852;SDS011;37894;53.172;6.598;2023-12-04T05:13:28;40.42;;;20.23;;
51852;SDS011;37894;53.172;6.598;2023-12-04T05:15:54;38.33;;;18.33;;
51852;SDS011;37894;53.172;6.598;2023-12-04T05:18:19;39.75;;;19.02;;
51852;SDS011;37894;53.172;6.598;2023-12-04T05:20:46;43.15;;;19.98;;
51852;SDS011;37894;53.172;6.598;2023-12-04T05:23:12;44.05;;;19.08;;
51852;SDS011;37894;53.172;6.598;2023-12-04T05:25:38;38.92;;;19.02;;
51852;SDS011;37894;53.172;6.598;2023-12-04T05:28:04;43.03;;;20.02;;
51852;SDS011;37894;53.172;6.598;2023-12-04T05:30:30;38.70;;;19.02;;
51852;SDS011;37894;53.172;6.598;2023-12-04T05:32:55;37.75;;;17.90;;
51852;SDS011;37894;53.172;6.598;2023-12-04T05:35:21;38.90;;;17.50;;
51852;SDS011;37894;53.172;6.598;2023-12-04T05:37:47;37.28;;;18.27;;
51852;SDS011;37894;53.172;6.598;2023-12-04T05:40:13;35.70;;;17.90;;
51852;SDS011;37894;53.172;6.598;2023-12-04T05:42:39;40.65;;;18.38;;
51852;SDS011;37894;53.172;6.598;2023-12-04T05:45:05;36.97;;;18.17;;
51852;SDS011;37894;53.172;6.598;2023-12-04T05:47:32;39.60;;;18.65;;
51852;SDS011;37894;53.172;6.598;2023-12-04T05:49:59;37.20;;;17.58;;
51852;SDS011;37894;53.172;6.598;2023-12-04T05:52:25;39.75;;;19.10;;
51852;SDS011;37894;53.172;6.598;2023-12-04T05:54:51;39.97;;;17.92;;
51852;SDS011;37894;53.172;6.598;2023-12-04T05:57:17;37.58;;;17.90;;
51852;SDS011;37894;53.172;6.598;2023-12-04T05:59:43;37.15;;;17.35;;
51852;SDS011;37894;53.172;6.598;2023-12-04T06:02:09;38.35;;;18.52;;
51852;SDS011;37894;53.172;6.598;2023-12-04T06:04:34;38.65;;;18.33;;
51852;SDS011;37894;53.172;6.598;2023-12-04T06:07:00;34.15;;;17.27;;
51852;SDS011;37894;53.172;6.598;2023-12-04T06:09:26;36.28;;;17.55;;
51852;SDS011;37894;53.172;6.598;2023-12-04T06:11:52;38.97;;;16.98;;
51852;SDS011;37894;53.172;6.598;2023-12-04T06:14:18;41.28;;;18.13;;
51852;SDS011;37894;53.172;6.598;2023-12-04T06:16:44;38.08;;;16.63;;
51852;SDS011;37894;53.172;6.598;2023-12-04T06:19:10;38.92;;;18.80;;
51852;SDS011;37894;53.172;6.598;2023-12-04T06:21:36;39.20;;;18.25;;
51852;SDS011;37894;53.172;6.598;2023-12-04T06:24:02;36.03;;;17.05;;
51852;SDS011;37894;53.172;6.598;2023-12-04T06:26:29;37.28;;;18.02;;
51852;SDS011;37894;53.172;6.598;2023-12-04T06:28:56;40.78;;;18.63;;
51852;SDS011;37894;53.172;6.598;2023-12-04T06:31:22;36.35;;;18.20;;
51852;SDS011;37894;53.172;6.598;2023-12-04T06:33:48;30.13;;;15.38;;
51852;SDS011;37894;53.172;6.598;2023-12-04T06:36:15;34.90;;;17.55;;
51852;SDS011;37894;53.172;6.598;2023-12-04T06:38:42;31.65;;;15.80;;
51852;SDS011;37894;53.172;6.598;2023-12-04T06:41:11;35.50;;;17.30;;
51852;SDS011;37894;53.172;6.598;2023-12-04T06:43:37;31.48;;;15.38;;
51852;SDS011;37894;53.172;6.598;2023-12-04T06:46:04;34.13;;;15.38;;
51852;SDS011;37894;53.172;6.598;2023-12-04T06:48:31;32.92;;;15.75;;
51852;SDS011;37894;53.172;6.598;2023-12-04T06:50:57;32.88;;;15.57;;
51852;SDS011;37894;53.172;6.598;2023-12-04T06:53:23;29.77;;;14.98;;
51852;SDS011;37894;53.172;6.598;2023-12-04T06:55:49;33.90;;;16.02;;
51852;SDS011;37894;53.172;6.598;2023-12-04T06:58:14;32.17;;;15.88;;
51852;SDS011;37894;53.172;6.598;2023-12-04T07:00:40;32.95;;;17.23;;
51852;SDS011;37894;53.172;6.598;2023-12-04T07:03:06;36.85;;;17.27;;
51852;SDS011;37894;53.172;6.598;2023-12-04T07:05:32;37.05;;;15.82;;
51852;SDS011;37894;53.172;6.598;2023-12-04T07:07:57;33.20;;;15.68;;
51852;SDS011;37894;53.172;6.598;2023-12-04T07:10:23;29.65;;;16.30;;
51852;SDS011;37894;53.172;6.598;2023-12-04T07:12:49;32.28;;;15.82;;
51852;SDS011;37894;53.172;6.598;2023-12-04T07:15:15;30.67;;;15.10;;
51852;SDS011;37894;53.172;6.598;2023-12-04T07:17:42;29.02;;;14.70;;
51852;SDS011;37894;53.172;6.598;2023-12-04T07:20:08;31.48;;;14.77;;
51852;SDS011;37894;53.172;6.598;2023-12-04T07:22:36;33.60;;;15.93;;
51852;SDS011;37894;53.172;6.598;2023-12-04T07:25:02;31.67;;;16.30;;
51852;SDS011;37894;53.172;6.598;2023-12-04T07:27:28;33.17;;;15.57;;
51852;SDS011;37894;53.172;6.598;2023-12-04T07:29:54;28.00;;;15.15;;
51852;SDS011;37894;53.172;6.598;2023-12-04T07:32:20;31.85;;;17.42;;
51852;SDS011;37894;53.172;6.598;2023-12-04T07:34:46;29.73;;;16.08;;
51852;SDS011;37894;53.172;6.598;2023-12-04T07:37:12;35.92;;;18.45;;
51852;SDS011;37894;53.172;6.598;2023-12-04T07:39:38;35.33;;;19.35;;
51852;SDS011;37894;53.172;6.598;2023-12-04T07:42:03;32.72;;;19.45;;
51852;SDS011;37894;53.172;6.598;2023-12-04T07:44:29;41.10;;;24.52;;
51852;SDS011;37894;53.172;6.598;2023-12-04T07:46:55;33.15;;;19.77;;
51852;SDS011;37894;53.172;6.598;2023-12-04T07:49:22;27.88;;;14.73;;
51852;SDS011;37894;53.172;6.598;2023-12-04T07:51:48;29.63;;;13.80;;
51852;SDS011;37894;53.172;6.598;2023-12-04T07:54:14;27.95;;;14.52;;
51852;SDS011;37894;53.172;6.598;2023-12-04T07:56:39;27.08;;;13.95;;
51852;SDS011;37894;53.172;6.598;2023-12-04T07:59:05;26.23;;;13.43;;
51852;SDS011;37894;53.172;6.598;2023-12-04T08:01:31;28.83;;;14.70;;
51852;SDS011;37894;53.172;6.598;2023-12-04T08:03:57;26.77;;;14.43;;
51852;SDS011;37894;53.172;6.598;2023-12-04T08:06:22;22.98;;;13.25;;
51852;SDS011;37894;53.172;6.598;2023-12-04T08:08:48;27.73;;;13.15;;
51852;SDS011;37894;53.172;6.598;2023-12-04T08:11:14;26.02;;;13.25;;
51852;SDS011;37894;53.172;6.598;2023-12-04T08:13:40;23.15;;;12.13;;
51852;SDS011;37894;53.172;6.598;2023-12-04T08:16:12;24.48;;;12.98;;
51852;SDS011;37894;53.172;6.598;2023-12-04T08:18:40;26.48;;;14.05;;
51852;SDS011;37894;53.172;6.598;2023-12-04T08:21:06;24.38;;;13.05;;
51852;SDS011;37894;53.172;6.598;2023-12-04T08:23:32;25.75;;;12.27;;
51852;SDS011;37894;53.172;6.598;2023-12-04T08:25:57;23.52;;;12.43;;
51852;SDS011;37894;53.172;6.598;2023-12-04T08:28:23;25.45;;;13.50;;
51852;SDS011;37894;53.172;6.598;2023-12-04T08:30:49;22.88;;;12.98;;
51852;SDS011;37894;53.172;6.598;2023-12-04T08:33:15;23.33;;;13.02;;
51852;SDS011;37894;53.172;6.598;2023-12-04T08:35:41;20.50;;;11.98;;
51852;SDS011;37894;53.172;6.598;2023-12-04T08:38:07;24.95;;;12.20;;
51852;SDS011;37894;53.172;6.598;2023-12-04T08:40:33;20.88;;;11.50;;
51852;SDS011;37894;53.172;6.598;2023-12-04T08:42:58;20.35;;;10.52;;
51852;SDS011;37894;53.172;6.598;2023-12-04T08:45:24;21.73;;;11.07;;
51852;SDS011;37894;53.172;6.598;2023-12-04T08:47:50;21.65;;;10.63;;
51852;SDS011;37894;53.172;6.598;2023-12-04T08:50:16;20.13;;;11.27;;
51852;SDS011;37894;53.172;6.598;2023-12-04T08:52:42;22.95;;;12.57;;
51852;SDS011;37894;53.172;6.598;2023-12-04T08:55:07;19.60;;;11.13;;
51852;SDS011;37894;53.172;6.598;2023-12-04T08:57:33;21.90;;;11.32;;
51852;SDS011;37894;53.172;6.598;2023-12-04T08:59:59;18.70;;;10.48;;
51852;SDS011;37894;53.172;6.598;2023-12-04T09:02:25;21.55;;;11.15;;
51852;SDS011;37894;53.172;6.598;2023-12-04T09:04:51;18.98;;;10.18;;
51852;SDS011;37894;53.172;6.598;2023-12-04T09:07:19;22.00;;;10.88;;
51852;SDS011;37894;53.172;6.598;2023-12-04T09:09:44;22.48;;;10.90;;
51852;SDS011;37894;53.172;6.598;2023-12-04T09:12:11;16.52;;;9.73;;
51852;SDS011;37894;53.172;6.598;2023-12-04T09:14:37;18.58;;;10.30;;
51852;SDS011;37894;53.172;6.598;2023-12-04T09:17:03;19.30;;;11.02;;
51852;SDS011;37894;53.172;6.598;2023-12-04T09:19:29;20.20;;;10.00;;
51852;SDS011;37894;53.172;6.598;2023-12-04T09:21:55;16.60;;;10.10;;
51852;SDS011;37894;53.172;6.598;2023-12-04T09:24:22;19.92;;;10.73;;
51852;SDS011;37894;53.172;6.598;2023-12-04T09:26:49;18.58;;;10.52;;
51852;SDS011;37894;53.172;6.598;2023-12-04T09:29:14;16.38;;;9.70;;
51852;SDS011;37894;53.172;6.598;2023-12-04T09:31:41;18.67;;;10.23;;
51852;SDS011;37894;53.172;6.598;2023-12-04T09:34:07;19.58;;;10.48;;
51852;SDS011;37894;53.172;6.598;2023-12-04T09:36:34;20.77;;;10.10;;
51852;SDS011;37894;53.172;6.598;2023-12-04T09:39:00;19.08;;;10.27;;
51852;SDS011;37894;53.172;6.598;2023-12-04T09:41:26;17.33;;;9.88;;
51852;SDS011;37894;53.172;6.598;2023-12-04T09:43:51;18.13;;;9.63;;
51852;SDS011;37894;53.172;6.598;2023-12-04T09:46:18;16.08;;;9.05;;
51852;SDS011;37894;53.172;6.598;2023-12-04T09:48:44;17.23;;;9.10;;
51852;SDS011;37894;53.172;6.598;2023-12-04T09:51:10;18.58;;;10.00;;
51852;SDS011;37894;53.172;6.598;2023-12-04T09:53:36;17.90;;;9.05;;
51852;SDS011;37894;53.172;6.598;2023-12-04T09:56:02;17.73;;;10.05;;
51852;SDS011;37894;53.172;6.598;2023-12-04T09:58:29;18.92;;;9.50;;
51852;SDS011;37894;53.172;6.598;2023-12-04T10:00:57;14.18;;;8.80;;
51852;SDS011;37894;53.172;6.598;2023-12-04T10:03:26;19.33;;;11.15;;
51852;SDS011;37894;53.172;6.598;2023-12-04T10:05:54;18.88;;;10.73;;
51852;SDS011;37894;53.172;6.598;2023-12-04T10:08:19;17.48;;;9.95;;
51852;SDS011;37894;53.172;6.598;2023-12-04T10:10:47;17.80;;;9.18;;
51852;SDS011;37894;53.172;6.598;2023-12-04T10:13:13;18.48;;;10.25;;
51852;SDS011;37894;53.172;6.598;2023-12-04T10:15:45;19.50;;;10.57;;
51852;SDS011;37894;53.172;6.598;2023-12-04T10:18:25;21.35;;;12.48;;
51852;SDS011;37894;53.172;6.598;2023-12-04T10:20:57;19.83;;;11.32;;
51852;SDS011;37894;53.172;6.598;2023-12-04T10:23:36;22.83;;;12.13;;
51852;SDS011;37894;53.172;6.598;2023-12-04T10:26:03;15.10;;;9.40;;
51852;SDS011;37894;53.172;6.598;2023-12-04T10:28:29;17.55;;;10.43;;
51852;SDS011;37894;53.172;6.598;2023-12-04T10:30:55;17.55;;;9.95;;
51852;SDS011;37894;53.172;6.598;2023-12-04T10:33:21;17.27;;;9.30;;
51852;SDS011;37894;53.172;6.598;2023-12-04T10:35:53;16.13;;;9.40;;
51852;SDS011;37894;53.172;6.598;2023-12-04T10:38:20;16.10;;;8.75;;
51852;SDS011;37894;53.172;6.598;2023-12-04T10:40:46;17.58;;;9.77;;
51852;SDS011;37894;53.172;6.598;2023-12-04T10:43:15;17.88;;;9.43;;
51852;SDS011;37894;53.172;6.598;2023-12-04T10:45:48;15.88;;;8.93;;
51852;SDS011;37894;53.172;6.598;2023-12-04T10:48:17;16.23;;;8.85;;
51852;SDS011;37894;53.172;6.598;2023-12-04T10:50:44;17.33;;;9.55;;
51852;SDS011;37894;53.172;6.598;2023-12-04T10:53:12;14.40;;;8.07;;
51852;SDS011;37894;53.172;6.598;2023-12-04T10:55:39;17.10;;;7.88;;
51852;SDS011;37894;53.172;6.598;2023-12-04T10:58:09;15.65;;;8.68;;
51852;SDS011;37894;53.172;6.598;2023-12-04T11:00:40;14.85;;;7.80;;
51852;SDS011;37894;53.172;6.598;2023-12-04T11:03:13;13.73;;;8.15;;
51852;SDS011;37894;53.172;6.598;2023-12-04T11:05:43;17.88;;;9.73;;
51852;SDS011;37894;53.172;6.598;2023-12-04T11:08:11;15.70;;;9.00;;
51852;SDS011;37894;53.172;6.598;2023-12-04T11:10:59;15.90;;;9.07;;
51852;SDS011;37894;53.172;6.598;2023-12-04T11:13:34;15.48;;;9.32;;
51852;SDS011;37894;53.172;6.598;2023-12-04T11:16:05;15.90;;;8.82;;
51852;SDS011;37894;53.172;6.598;2023-12-04T11:18:36;15.52;;;8.40;;
51852;SDS011;37894;53.172;6.598;2023-12-04T11:21:09;17.25;;;9.18;;
51852;SDS011;37894;53.172;6.598;2023-12-04T11:23:36;16.08;;;9.70;;
51852;SDS011;37894;53.172;6.598;2023-12-04T11:26:03;13.52;;;8.68;;
51852;SDS011;37894;53.172;6.598;2023-12-04T11:28:30;15.15;;;8.18;;
51852;SDS011;37894;53.172;6.598;2023-12-04T11:30:57;17.10;;;8.98;;
51852;SDS011;37894;53.172;6.598;2023-12-04T11:33:26;17.25;;;9.35;;
51852;SDS011;37894;53.172;6.598;2023-12-04T11:35:51;14.82;;;8.95;;
51852;SDS011;37894;53.172;6.598;2023-12-04T11:38:17;16.75;;;9.88;;
51852;SDS011;37894;53.172;6.598;2023-12-04T11:40:44;15.35;;;9.23;;
51852;SDS011;37894;53.172;6.598;2023-12-04T11:43:28;20.27;;;12.02;;
51852;SDS011;37894;53.172;6.598;2023-12-04T11:46:09;18.10;;;10.95;;
51852;SDS011;37894;53.172;6.598;2023-12-04T11:48:38;17.00;;;9.65;;
51852;SDS011;37894;53.172;6.598;2023-12-04T11:51:07;15.82;;;8.82;;
51852;SDS011;37894;53.172;6.598;2023-12-04T11:53:39;15.20;;;8.25;;
51852;SDS011;37894;53.172;6.598;2023-12-04T11:58:44;14.73;;;8.85;;
51852;SDS011;37894;53.172;6.598;2023-12-04T12:01:10;13.77;;;8.55;;
51852;SDS011;37894;53.172;6.598;2023-12-04T12:03:36;12.85;;;7.32;;
51852;SDS011;37894;53.172;6.598;2023-12-04T12:06:03;15.18;;;8.77;;
51852;SDS011;37894;53.172;6.598;2023-12-04T12:08:29;14.75;;;8.70;;
51852;SDS011;37894;53.172;6.598;2023-12-04T12:10:55;15.50;;;8.27;;
51852;SDS011;37894;53.172;6.598;2023-12-04T12:13:22;14.02;;;8.48;;
51852;SDS011;37894;53.172;6.598;2023-12-04T12:15:51;13.68;;;8.40;;
51852;SDS011;37894;53.172;6.598;2023-12-04T12:18:17;16.80;;;9.20;;
51852;SDS011;37894;53.172;6.598;2023-12-04T12:20:43;15.35;;;8.25;;
51852;SDS011;37894;53.172;6.598;2023-12-04T12:23:09;13.73;;;8.32;;
51852;SDS011;37894;53.172;6.598;2023-12-04T12:25:35;14.77;;;8.35;;
51852;SDS011;37894;53.172;6.598;2023-12-04T12:28:02;16.75;;;8.15;;
51852;SDS011;37894;53.172;6.598;2023-12-04T12:30:28;14.43;;;7.88;;
51852;SDS011;37894;53.172;6.598;2023-12-04T12:32:54;13.68;;;7.60;;
51852;SDS011;37894;53.172;6.598;2023-12-04T12:35:20;17.60;;;8.95;;
51852;SDS011;37894;53.172;6.598;2023-12-04T12:37:46;12.82;;;7.72;;
51852;SDS011;37894;53.172;6.598;2023-12-04T12:40:11;14.40;;;8.43;;
51852;SDS011;37894;53.172;6.598;2023-12-04T12:42:37;14.60;;;7.97;;
51852;SDS011;37894;53.172;6.598;2023-12-04T12:45:06;13.55;;;7.75;;
51852;SDS011;37894;53.172;6.598;2023-12-04T12:47:35;15.77;;;8.80;;
51852;SDS011;37894;53.172;6.598;2023-12-04T12:50:01;14.32;;;8.43;;
51852;SDS011;37894;53.172;6.598;2023-12-04T12:52:28;14.30;;;8.38;;
51852;SDS011;37894;53.172;6.598;2023-12-04T12:54:54;14.38;;;8.75;;
51852;SDS011;37894;53.172;6.598;2023-12-04T12:57:20;15.35;;;8.63;;
51852;SDS011;37894;53.172;6.598;2023-12-04T12:59:46;13.48;;;8.27;;
51852;SDS011;37894;53.172;6.598;2023-12-04T13:02:12;14.80;;;8.77;;
51852;SDS011;37894;53.172;6.598;2023-12-04T13:04:42;15.95;;;8.95;;
51852;SDS011;37894;53.172;6.598;2023-12-04T13:07:09;17.60;;;8.18;;
51852;SDS011;37894;53.172;6.598;2023-12-04T13:09:36;13.68;;;7.65;;
51852;SDS011;37894;53.172;6.598;2023-12-04T13:12:03;14.57;;;8.48;;
51852;SDS011;37894;53.172;6.598;2023-12-04T13:14:29;15.38;;;8.65;;
51852;SDS011;37894;53.172;6.598;2023-12-04T13:16:56;16.63;;;8.50;;
51852;SDS011;37894;53.172;6.598;2023-12-04T13:19:25;15.35;;;8.82;;
51852;SDS011;37894;53.172;6.598;2023-12-04T13:21:50;16.25;;;10.02;;
51852;SDS011;37894;53.172;6.598;2023-12-04T13:24:19;15.57;;;8.60;;
51852;SDS011;37894;53.172;6.598;2023-12-04T13:26:45;15.75;;;8.40;;
51852;SDS011;37894;53.172;6.598;2023-12-04T13:29:11;17.08;;;8.20;;
51852;SDS011;37894;53.172;6.598;2023-12-04T13:31:38;15.15;;;8.93;;
51852;SDS011;37894;53.172;6.598;2023-12-04T13:34:05;17.08;;;9.00;;
51852;SDS011;37894;53.172;6.598;2023-12-04T13:36:32;16.05;;;9.30;;
51852;SDS011;37894;53.172;6.598;2023-12-04T13:38:59;15.32;;;8.48;;
51852;SDS011;37894;53.172;6.598;2023-12-04T13:41:25;15.98;;;8.93;;
51852;SDS011;37894;53.172;6.598;2023-12-04T13:44:10;15.10;;;8.65;;
51852;SDS011;37894;53.172;6.598;2023-12-04T13:46:39;15.27;;;8.18;;
51852;SDS011;37894;53.172;6.598;2023-12-04T13:49:05;14.90;;;8.63;;
51852;SDS011;37894;53.172;6.598;2023-12-04T13:51:31;13.65;;;8.30;;
51852;SDS011;37894;53.172;6.598;2023-12-04T13:53:56;13.52;;;7.88;;
51852;SDS011;37894;53.172;6.598;2023-12-04T13:56:33;14.45;;;8.35;;
51852;SDS011;37894;53.172;6.598;2023-12-04T13:59:09;12.85;;;7.75;;
51852;SDS011;37894;53.172;6.598;2023-12-04T14:01:43;18.02;;;8.77;;
51852;SDS011;37894;53.172;6.598;2023-12-04T14:04:09;12.95;;;7.90;;
51852;SDS011;37894;53.172;6.598;2023-12-04T14:06:35;14.52;;;8.00;;
51852;SDS011;37894;53.172;6.598;2023-12-04T14:09:01;13.75;;;8.15;;
51852;SDS011;37894;53.172;6.598;2023-12-04T14:11:30;13.52;;;7.53;;
51852;SDS011;37894;53.172;6.598;2023-12-04T14:13:56;15.57;;;8.05;;
51852;SDS011;37894;53.172;6.598;2023-12-04T14:16:22;15.95;;;9.00;;
51852;SDS011;37894;53.172;6.598;2023-12-04T14:18:48;14.43;;;8.40;;
51852;SDS011;37894;53.172;6.598;2023-12-04T14:21:13;14.65;;;8.27;;
51852;SDS011;37894;53.172;6.598;2023-12-04T14:23:39;13.25;;;7.60;;
51852;SDS011;37894;53.172;6.598;2023-12-04T14:26:05;12.75;;;8.15;;
51852;SDS011;37894;53.172;6.598;2023-12-04T14:28:31;14.23;;;7.55;;